createdAt,value
2018-06-25T00:00:17.699Z,0
2018-06-25T00:01:23.122Z,0
2018-06-25T00:02:28.563Z,0
2018-06-25T00:03:33.987Z,0
2018-06-25T00:04:39.423Z,0
2018-06-25T00:05:43.767Z,0
2018-06-25T00:06:49.274Z,0
2018-06-25T00:07:54.452Z,0
2018-06-25T00:08:59.888Z,0
2018-06-25T00:10:05.407Z,0
2018-06-25T00:11:10.266Z,0
2018-06-25T00:12:15.718Z,0
2018-06-25T00:13:20.572Z,0
2018-06-25T00:14:25.445Z,0
2018-06-25T00:15:30.878Z,0
2018-06-25T00:16:36.312Z,0
2018-06-25T00:17:41.470Z,0
2018-06-25T00:18:46.594Z,0
2018-06-25T00:19:51.752Z,0
2018-06-25T00:20:57.204Z,0
2018-06-25T00:22:02.346Z,0
2018-06-25T00:23:07.223Z,0
2018-06-25T00:24:12.668Z,0
2018-06-25T00:25:17.514Z,0
2018-06-25T00:26:22.667Z,0
2018-06-25T00:27:28.525Z,0
2018-06-25T00:28:33.965Z,0
2018-06-25T00:29:39.413Z,0
2018-06-25T00:30:44.826Z,0
2018-06-25T00:31:50.027Z,0
2018-06-25T00:32:55.207Z,0
2018-06-25T00:34:01.042Z,0
2018-06-25T00:35:05.921Z,0
2018-06-25T00:36:10.810Z,0
2018-06-25T00:37:16.231Z,0
2018-06-25T00:38:21.406Z,0
2018-06-25T00:39:27.057Z,0
2018-06-25T00:40:32.221Z,0
2018-06-25T00:41:37.660Z,0
2018-06-25T00:42:42.909Z,0
2018-06-25T00:43:47.780Z,0
2018-06-25T00:44:52.949Z,0
2018-06-25T00:45:58.441Z,0
2018-06-25T00:47:03.893Z,0
2018-06-25T00:48:08.764Z,0
2018-06-25T00:49:14.452Z,0
2018-06-25T00:50:19.622Z,0
2018-06-25T00:51:24.509Z,0
2018-06-25T00:52:29.677Z,0
2018-06-25T00:53:34.828Z,0
2018-06-25T00:54:39.961Z,0
2018-06-25T00:55:45.140Z,0
2018-06-25T00:56:50.011Z,0
2018-06-25T00:57:55.713Z,0
2018-06-25T00:59:01.163Z,0
2018-06-25T01:00:06.089Z,0
2018-06-25T01:01:11.616Z,0
2018-06-25T01:02:16.493Z,0
2018-06-25T01:03:21.681Z,0
2018-06-25T01:04:41.464Z,0
2018-06-25T01:05:46.630Z,0
2018-06-25T01:06:52.047Z,0
2018-06-25T01:07:57.511Z,0
2018-06-25T01:09:02.118Z,0
2018-06-25T01:10:06.843Z,0
2018-06-25T01:11:12.278Z,0
2018-06-25T01:12:17.165Z,0
2018-06-25T01:13:22.955Z,0
2018-06-25T01:14:27.581Z,0
2018-06-25T01:15:33.105Z,0
2018-06-25T01:16:38.541Z,0
2018-06-25T01:17:43.709Z,0
2018-06-25T01:18:48.392Z,0
2018-06-25T01:19:53.567Z,0
2018-06-25T01:20:59.004Z,0
2018-06-25T01:22:04.136Z,0
2018-06-25T01:23:09.286Z,0
2018-06-25T01:24:14.437Z,0
2018-06-25T01:25:19.291Z,0
2018-06-25T01:26:24.449Z,0
2018-06-25T01:27:30.268Z,0
2018-06-25T01:28:35.728Z,0
2018-06-25T01:29:40.330Z,0
2018-06-25T01:30:46.237Z,0
2018-06-25T01:31:51.402Z,0
2018-06-25T01:32:56.275Z,0
2018-06-25T01:34:02.137Z,0
2018-06-25T01:35:07.011Z,0
2018-06-25T01:36:12.459Z,0
2018-06-25T01:37:17.970Z,0
2018-06-25T01:38:23.129Z,0
2018-06-25T01:39:28.791Z,0
2018-06-25T01:40:33.966Z,0
2018-06-25T01:41:39.152Z,0
2018-06-25T01:42:44.839Z,0
2018-06-25T01:43:49.998Z,0
2018-06-25T01:44:55.178Z,0
2018-06-25T01:46:00.682Z,0
2018-06-25T01:47:05.872Z,0
2018-06-25T01:48:10.782Z,0
2018-06-25T01:49:16.488Z,0
2018-06-25T01:50:21.378Z,0
2018-06-25T01:51:41.594Z,0
2018-06-25T01:52:46.761Z,0
2018-06-25T01:53:52.205Z,0
2018-06-25T01:54:57.761Z,0
2018-06-25T01:56:02.650Z,0
2018-06-25T01:57:07.546Z,0
2018-06-25T01:58:13.119Z,0
2018-06-25T01:59:18.548Z,0
2018-06-25T02:00:24.003Z,0
2018-06-25T02:01:44.335Z,0
2018-06-25T02:02:49.227Z,0
2018-06-25T02:03:54.338Z,0
2018-06-25T02:04:59.801Z,0
2018-06-25T02:06:04.991Z,0
2018-06-25T02:07:10.701Z,0
2018-06-25T02:08:15.577Z,0
2018-06-25T02:09:20.174Z,0
2018-06-25T02:10:25.872Z,0
2018-06-25T02:11:30.754Z,0
2018-06-25T02:12:36.591Z,0
2018-06-25T02:13:41.770Z,0
2018-06-25T02:14:47.243Z,0
2018-06-25T02:15:53.039Z,0
2018-06-25T02:16:57.939Z,0
2018-06-25T02:18:03.097Z,0
2018-06-25T02:19:08.278Z,0
2018-06-25T02:20:13.716Z,0
2018-06-25T02:21:18.875Z,0
2018-06-25T02:22:24.414Z,0
2018-06-25T02:23:29.570Z,0
2018-06-25T02:24:35.282Z,0
2018-06-25T02:25:40.720Z,0
2018-06-25T02:26:45.590Z,0
2018-06-25T02:27:51.648Z,0
2018-06-25T02:28:56.537Z,0
2018-06-25T02:30:01.712Z,0
2018-06-25T02:31:06.861Z,0
2018-06-25T02:32:12.014Z,0
2018-06-25T02:33:17.475Z,0
2018-06-25T02:34:22.317Z,0
2018-06-25T02:35:27.766Z,0
2018-06-25T02:36:32.839Z,0
2018-06-25T02:37:38.008Z,0
2018-06-25T02:38:43.459Z,0
2018-06-25T02:39:49.741Z,0
2018-06-25T02:40:54.927Z,0
2018-06-25T02:42:00.082Z,0
2018-06-25T02:43:05.779Z,0
2018-06-25T02:44:10.968Z,0
2018-06-25T02:45:16.124Z,0
2018-06-25T02:46:21.551Z,0
2018-06-25T02:47:26.741Z,0
2018-06-25T02:48:32.731Z,0
2018-06-25T02:49:38.211Z,0
2018-06-25T02:50:43.364Z,0
2018-06-25T02:51:48.495Z,0
2018-06-25T02:52:53.941Z,0
2018-06-25T02:53:59.102Z,0
2018-06-25T02:55:04.657Z,0
2018-06-25T02:56:09.550Z,0
2018-06-25T02:57:14.736Z,0
2018-06-25T02:58:20.572Z,0
2018-06-25T02:59:25.452Z,0
2018-06-25T03:00:30.731Z,0
2018-06-25T03:01:35.901Z,0
2018-06-25T03:02:41.382Z,0
2018-06-25T03:03:46.658Z,0
2018-06-25T03:04:52.089Z,0
2018-06-25T03:05:57.534Z,0
2018-06-25T03:07:03.331Z,0
2018-06-25T03:08:08.479Z,0
2018-06-25T03:09:13.925Z,0
2018-06-25T03:10:19.387Z,0
2018-06-25T03:11:24.587Z,0
2018-06-25T03:12:30.582Z,0
2018-06-25T03:13:35.766Z,0
2018-06-25T03:14:40.920Z,0
2018-06-25T03:15:45.766Z,0
2018-06-25T03:16:50.937Z,0
2018-06-25T03:17:56.413Z,0
2018-06-25T03:19:01.230Z,0
2018-06-25T03:20:05.826Z,0
2018-06-25T03:21:11.291Z,0
2018-06-25T03:22:16.814Z,0
2018-06-25T03:23:21.709Z,0
2018-06-25T03:24:42.104Z,0
2018-06-25T03:25:46.996Z,0
2018-06-25T03:26:52.157Z,0
2018-06-25T03:27:58.002Z,0
2018-06-25T03:29:03.164Z,0
2018-06-25T03:30:08.332Z,0
2018-06-25T03:31:13.509Z,0
2018-06-25T03:32:18.667Z,0
2018-06-25T03:33:23.855Z,0
2018-06-25T03:34:29.569Z,0
2018-06-25T03:35:34.447Z,0
2018-06-25T03:36:40.014Z,0
2018-06-25T03:37:45.183Z,0
2018-06-25T03:38:50.362Z,0
2018-06-25T03:39:55.925Z,0
2018-06-25T03:41:01.092Z,0
2018-06-25T03:42:05.969Z,0
2018-06-25T03:43:11.983Z,0
2018-06-25T03:44:17.233Z,0
2018-06-25T03:45:22.436Z,0
2018-06-25T03:46:28.303Z,0
2018-06-25T03:47:33.740Z,0
2018-06-25T03:48:39.605Z,0
2018-06-25T03:49:44.785Z,0
2018-06-25T03:50:49.674Z,0
2018-06-25T03:51:55.085Z,0
2018-06-25T03:53:00.551Z,0
2018-06-25T03:54:05.162Z,6
2018-06-25T03:55:10.875Z,6
2018-06-25T03:56:16.319Z,6
2018-06-25T03:57:21.489Z,6
2018-06-25T03:58:26.753Z,6
2018-06-25T03:59:32.201Z,6
2018-06-25T04:00:38.152Z,24
2018-06-25T04:01:43.602Z,24
2018-06-25T04:02:48.763Z,24
2018-06-25T04:03:54.430Z,24
2018-06-25T04:04:59.595Z,40
2018-06-25T04:06:04.483Z,40
2018-06-25T04:07:09.032Z,40
2018-06-25T04:08:14.491Z,40
2018-06-25T04:09:19.923Z,40
2018-06-25T04:10:25.339Z,40
2018-06-25T04:11:30.228Z,40
2018-06-25T04:12:35.087Z,40
2018-06-25T04:13:39.713Z,55
2018-06-25T04:14:45.172Z,55
2018-06-25T04:15:51.185Z,31
2018-06-25T04:16:56.613Z,48
2018-06-25T04:18:01.814Z,48
2018-06-25T04:19:07.091Z,31
2018-06-25T04:20:12.536Z,31
2018-06-25T04:21:17.116Z,55
2018-06-25T04:22:22.058Z,40
2018-06-25T04:23:27.243Z,40
2018-06-25T04:24:32.240Z,40
2018-06-25T04:25:37.121Z,40
2018-06-25T04:26:41.720Z,40
2018-06-25T04:27:47.514Z,40
2018-06-25T04:28:52.968Z,40
2018-06-25T04:29:57.833Z,40
2018-06-25T04:31:03.375Z,40
2018-06-25T04:32:08.538Z,40
2018-06-25T04:33:13.977Z,40
2018-06-25T04:34:19.437Z,24
2018-06-25T04:35:24.604Z,24
2018-06-25T04:36:30.389Z,6
2018-06-25T04:37:35.547Z,6
2018-06-25T04:38:40.705Z,6
2018-06-25T04:39:46.394Z,24
2018-06-25T04:40:51.278Z,24
2018-06-25T04:41:55.903Z,24
2018-06-25T04:43:01.604Z,24
2018-06-25T04:44:06.496Z,6
2018-06-25T04:45:11.674Z,6
2018-06-25T04:46:16.950Z,6
2018-06-25T04:47:22.408Z,6
2018-06-25T04:48:27.780Z,6
2018-06-25T04:49:32.971Z,0
2018-06-25T04:50:38.924Z,6
2018-06-25T04:51:44.145Z,6
2018-06-25T04:52:49.313Z,24
2018-06-25T04:53:53.628Z,24
2018-06-25T04:54:59.034Z,40
2018-06-25T04:56:03.634Z,24
2018-06-25T04:57:09.092Z,24
2018-06-25T04:58:14.890Z,24
2018-06-25T04:59:20.344Z,24
2018-06-25T05:00:40.702Z,24
2018-06-25T05:01:45.864Z,24
2018-06-25T05:02:51.307Z,24
2018-06-25T05:03:57.156Z,24
2018-06-25T05:05:01.768Z,24
2018-06-25T05:06:06.370Z,24
2018-06-25T05:07:11.330Z,24
2018-06-25T05:08:15.920Z,24
2018-06-25T05:09:21.383Z,24
2018-06-25T05:10:27.585Z,24
2018-06-25T05:11:32.810Z,24
2018-06-25T05:12:38.647Z,24
2018-06-25T05:13:43.529Z,24
2018-06-25T05:14:48.686Z,24
2018-06-25T05:15:54.496Z,24
2018-06-25T05:16:59.664Z,24
2018-06-25T05:18:04.818Z,24
2018-06-25T05:19:10.220Z,24
2018-06-25T05:20:15.659Z,40
2018-06-25T05:21:20.261Z,40
2018-06-25T05:22:25.678Z,40
2018-06-25T05:23:31.153Z,55
2018-06-25T05:24:36.764Z,55
2018-06-25T05:25:41.672Z,55
2018-06-25T05:26:46.820Z,55
2018-06-25T05:27:52.730Z,55
2018-06-25T05:28:57.659Z,55
2018-06-25T05:30:02.855Z,55
2018-06-25T05:31:08.545Z,55
2018-06-25T05:32:13.702Z,48
2018-06-25T05:33:19.157Z,48
2018-06-25T05:34:24.559Z,48
2018-06-25T05:35:29.764Z,64
2018-06-25T05:36:35.427Z,64
2018-06-25T05:37:40.030Z,64
2018-06-25T05:38:45.198Z,64
2018-06-25T05:39:51.063Z,80
2018-06-25T05:40:56.510Z,80
2018-06-25T05:42:01.686Z,80
2018-06-25T05:43:07.105Z,64
2018-06-25T05:44:12.281Z,64
2018-06-25T05:45:17.475Z,64
2018-06-25T05:46:23.276Z,80
2018-06-25T05:47:28.436Z,80
2018-06-25T05:48:33.868Z,64
2018-06-25T05:49:39.323Z,64
2018-06-25T05:50:44.239Z,80
2018-06-25T05:51:49.928Z,80
2018-06-25T05:52:54.517Z,80
2018-06-25T05:53:59.964Z,80
2018-06-25T05:55:04.821Z,72
2018-06-25T05:56:09.697Z,88
2018-06-25T05:57:14.866Z,104
2018-06-25T05:58:20.281Z,112
2018-06-25T05:59:24.882Z,128
2018-06-25T06:00:30.484Z,136
2018-06-25T06:01:35.645Z,121
2018-06-25T06:02:41.089Z,121
2018-06-25T06:03:46.204Z,121
2018-06-25T06:04:51.092Z,104
2018-06-25T06:05:56.529Z,104
2018-06-25T06:07:01.653Z,104
2018-06-25T06:08:06.807Z,104
2018-06-25T06:09:11.821Z,104
2018-06-25T06:10:17.919Z,121
2018-06-25T06:11:23.368Z,121
2018-06-25T06:12:28.697Z,121
2018-06-25T06:13:33.876Z,104
2018-06-25T06:14:39.316Z,88
2018-06-25T06:15:45.014Z,72
2018-06-25T06:16:49.602Z,72
2018-06-25T06:17:55.044Z,96
2018-06-25T06:19:00.844Z,80
2018-06-25T06:20:05.432Z,80
2018-06-25T06:21:10.319Z,80
2018-06-25T06:22:15.440Z,96
2018-06-25T06:23:20.611Z,88
2018-06-25T06:24:26.144Z,104
2018-06-25T06:25:31.415Z,104
2018-06-25T06:26:36.571Z,121
2018-06-25T06:27:42.276Z,121
2018-06-25T06:28:47.455Z,136
2018-06-25T06:29:52.337Z,112
2018-06-25T06:30:57.847Z,136
2018-06-25T06:32:03.118Z,121
2018-06-25T06:33:08.742Z,104
2018-06-25T06:34:14.241Z,104
2018-06-25T06:35:19.691Z,104
2018-06-25T06:36:24.569Z,121
2018-06-25T06:37:45.033Z,128
2018-06-25T06:38:50.481Z,145
2018-06-25T06:39:56.136Z,176
2018-06-25T06:41:01.904Z,225
2018-06-25T06:42:06.236Z,209
2018-06-25T06:43:11.431Z,185
2018-06-25T06:44:16.869Z,209
2018-06-25T06:45:22.089Z,185
2018-06-25T06:46:27.894Z,185
2018-06-25T06:47:33.331Z,169
2018-06-25T06:48:39.027Z,185
2018-06-25T06:49:44.182Z,185
2018-06-25T06:50:49.634Z,201
2018-06-25T06:51:55.163Z,201
2018-06-25T06:53:00.319Z,192
2018-06-25T06:54:04.651Z,176
2018-06-25T06:55:10.352Z,185
2018-06-25T06:56:15.229Z,185
2018-06-25T06:57:20.117Z,185
2018-06-25T06:58:25.228Z,185
2018-06-25T06:59:30.686Z,192
2018-06-25T07:00:36.231Z,176
2018-06-25T07:01:41.387Z,185
2018-06-25T07:02:46.276Z,169
2018-06-25T07:03:52.083Z,185
2018-06-25T07:04:57.249Z,152
2018-06-25T07:06:02.138Z,136
2018-06-25T07:07:06.992Z,152
2018-06-25T07:08:11.882Z,169
2018-06-25T07:09:17.038Z,185
2018-06-25T07:10:23.101Z,192
2018-06-25T07:11:28.774Z,216
2018-06-25T07:12:34.184Z,233
2018-06-25T07:13:39.366Z,249
2018-06-25T07:14:44.533Z,249
2018-06-25T07:15:50.390Z,233
2018-06-25T07:16:56.030Z,200
2018-06-25T07:18:01.498Z,192
2018-06-25T07:19:06.455Z,176
2018-06-25T07:20:11.841Z,176
2018-06-25T07:21:17.016Z,201
2018-06-25T07:22:22.635Z,185
2018-06-25T07:23:27.505Z,185
2018-06-25T07:24:33.212Z,201
2018-06-25T07:25:38.671Z,169
2018-06-25T07:26:44.119Z,169
2018-06-25T07:27:49.521Z,201
2018-06-25T07:28:55.293Z,209
2018-06-25T07:30:00.587Z,192
2018-06-25T07:31:06.033Z,201
2018-06-25T07:32:10.893Z,201
2018-06-25T07:33:15.494Z,192
2018-06-25T07:34:20.789Z,257
2018-06-25T07:35:25.669Z,266
2018-06-25T07:36:31.194Z,233
2018-06-25T07:37:36.389Z,216
2018-06-25T07:38:40.703Z,200
2018-06-25T07:39:46.395Z,225
2018-06-25T07:40:51.467Z,209
2018-06-25T07:41:56.907Z,192
2018-06-25T07:43:02.131Z,169
2018-06-25T07:44:07.312Z,128
2018-06-25T07:45:12.766Z,128
2018-06-25T07:46:18.209Z,121
2018-06-25T07:47:23.991Z,121
2018-06-25T07:48:29.808Z,104
2018-06-25T07:49:34.965Z,136
2018-06-25T07:50:39.857Z,112
2018-06-25T07:51:45.548Z,121
2018-06-25T07:52:50.151Z,121
2018-06-25T07:53:55.591Z,121
2018-06-25T07:55:01.010Z,121
2018-06-25T07:56:06.206Z,121
2018-06-25T07:57:11.366Z,121
2018-06-25T07:58:16.351Z,88
2018-06-25T07:59:21.820Z,88
2018-06-25T08:00:27.508Z,104
2018-06-25T08:01:32.949Z,112
2018-06-25T08:02:38.472Z,136
2018-06-25T08:03:44.125Z,112
2018-06-25T08:04:49.546Z,112
2018-06-25T08:05:54.697Z,136
2018-06-25T08:07:00.114Z,121
2018-06-25T08:08:05.581Z,121
2018-06-25T08:09:10.628Z,136
2018-06-25T08:10:16.557Z,136
2018-06-25T08:11:22.181Z,121
2018-06-25T08:12:27.470Z,136
2018-06-25T08:13:32.628Z,136
2018-06-25T08:14:37.777Z,121
2018-06-25T08:15:43.296Z,121
2018-06-25T08:16:48.447Z,104
2018-06-25T08:17:53.839Z,88
2018-06-25T08:18:59.032Z,104
2018-06-25T08:20:03.625Z,121
2018-06-25T08:21:08.539Z,136
2018-06-25T08:22:13.944Z,128
2018-06-25T08:23:19.390Z,128
2018-06-25T08:25:44.161Z,161
2018-06-25T08:26:49.034Z,152
2018-06-25T08:27:54.720Z,169
2018-06-25T08:29:00.374Z,201
2018-06-25T08:30:05.893Z,169
2018-06-25T08:31:11.432Z,185
2018-06-25T08:32:16.600Z,185
2018-06-25T08:33:21.463Z,169
2018-06-25T08:34:28.485Z,161
2018-06-25T08:35:34.593Z,145
2018-06-25T08:36:39.754Z,128
2018-06-25T08:37:44.936Z,145
2018-06-25T08:38:50.409Z,152
2018-06-25T08:39:56.105Z,185
2018-06-25T08:41:01.500Z,185
2018-06-25T08:42:06.389Z,176
2018-06-25T08:43:12.235Z,201
2018-06-25T08:44:17.405Z,185
2018-06-25T08:45:22.570Z,152
2018-06-25T08:46:28.433Z,128
2018-06-25T08:47:33.608Z,128
2018-06-25T08:48:39.136Z,128
2018-06-25T08:49:43.729Z,128
2018-06-25T08:50:49.516Z,121
2018-06-25T08:51:55.084Z,121
2018-06-25T08:53:00.755Z,72
2018-06-25T08:54:05.632Z,80
2018-06-25T08:55:10.992Z,80
2018-06-25T08:56:16.450Z,80
2018-06-25T08:57:21.613Z,80
2018-06-25T08:58:27.227Z,88
2018-06-25T08:59:32.103Z,104
2018-06-25T09:00:38.248Z,136
2018-06-25T09:01:42.844Z,145
2018-06-25T09:02:48.004Z,169
2018-06-25T09:03:53.718Z,169
2018-06-25T09:04:58.889Z,169
2018-06-25T09:06:04.068Z,152
2018-06-25T09:07:09.737Z,152
2018-06-25T09:08:15.181Z,169
2018-06-25T09:09:20.355Z,169
2018-06-25T09:10:24.690Z,152
2018-06-25T09:11:30.146Z,145
2018-06-25T09:12:36.016Z,145
2018-06-25T09:13:40.606Z,128
2018-06-25T09:14:46.044Z,121
2018-06-25T09:15:51.744Z,88
2018-06-25T09:16:56.609Z,96
2018-06-25T09:18:01.783Z,88
2018-06-25T09:19:06.465Z,145
2018-06-25T09:20:11.358Z,161
2018-06-25T09:21:17.010Z,176
2018-06-25T09:22:22.709Z,201
2018-06-25T09:23:27.877Z,241
2018-06-25T09:24:33.283Z,266
2018-06-25T09:25:38.732Z,249
2018-06-25T09:26:44.189Z,257
2018-06-25T09:27:50.596Z,266
2018-06-25T09:28:56.093Z,282
2018-06-25T09:30:01.536Z,297
2018-06-25T09:31:06.535Z,322
2018-06-25T09:32:11.452Z,362
2018-06-25T09:33:16.346Z,361
2018-06-25T09:34:21.776Z,370
2018-06-25T09:35:27.232Z,377
2018-06-25T09:36:32.349Z,401
2018-06-25T09:37:37.814Z,522
2018-06-25T09:38:42.981Z,449
2018-06-25T09:39:48.957Z,425
2018-06-25T09:40:54.359Z,473
2018-06-25T09:41:59.746Z,489
2018-06-25T09:43:04.873Z,425
2018-06-25T09:44:09.741Z,409
2018-06-25T09:45:14.939Z,401
2018-06-25T09:46:19.827Z,377
2018-06-25T09:47:25.144Z,321
2018-06-25T09:48:30.280Z,330
2018-06-25T09:49:35.716Z,313
2018-06-25T09:50:40.885Z,280
2018-06-25T09:51:46.012Z,280
2018-06-25T09:52:51.185Z,337
2018-06-25T09:53:56.641Z,297
2018-06-25T09:55:02.093Z,409
2018-06-25T09:56:06.446Z,233
2018-06-25T09:57:11.963Z,192
2018-06-25T09:58:17.485Z,169
2018-06-25T09:59:22.940Z,136
2018-06-25T10:00:28.644Z,152
2018-06-25T10:01:33.258Z,152
2018-06-25T10:02:38.414Z,152
2018-06-25T10:03:43.282Z,161
2018-06-25T10:04:48.462Z,161
2018-06-25T10:05:53.065Z,145
2018-06-25T10:06:58.872Z,145
2018-06-25T10:08:03.491Z,152
2018-06-25T10:09:08.647Z,201
2018-06-25T10:10:14.450Z,209
2018-06-25T10:11:19.602Z,249
2018-06-25T10:12:24.487Z,306
2018-06-25T10:13:30.107Z,330
2018-06-25T10:14:35.272Z,330
2018-06-25T10:15:40.674Z,346
2018-06-25T10:16:46.328Z,330
2018-06-25T10:17:51.494Z,280
2018-06-25T10:18:57.230Z,328
2018-06-25T10:20:02.703Z,321
2018-06-25T10:21:06.754Z,344
2018-06-25T10:22:12.176Z,344
2018-06-25T10:23:17.143Z,257
2018-06-25T10:24:22.595Z,200
2018-06-25T10:25:28.114Z,176
2018-06-25T10:26:33.520Z,169
2018-06-25T10:27:38.942Z,136
2018-06-25T10:28:44.396Z,161
2018-06-25T10:29:49.851Z,169
2018-06-25T10:30:55.083Z,192
2018-06-25T10:31:59.990Z,233
2018-06-25T10:33:05.432Z,266
2018-06-25T10:34:10.570Z,266
2018-06-25T10:35:15.363Z,282
2018-06-25T10:36:20.824Z,289
2018-06-25T10:37:26.141Z,306
2018-06-25T10:38:31.589Z,297
2018-06-25T10:39:37.015Z,297
2018-06-25T10:40:42.186Z,273
2018-06-25T10:41:47.646Z,233
2018-06-25T10:42:52.393Z,209
2018-06-25T10:43:57.548Z,209
2018-06-25T10:45:02.154Z,183
2018-06-25T10:46:07.017Z,183
2018-06-25T10:47:12.182Z,192
2018-06-25T10:48:17.356Z,176
2018-06-25T10:49:23.265Z,185
2018-06-25T10:50:28.947Z,169
2018-06-25T10:51:34.369Z,169
2018-06-25T10:52:39.571Z,185
2018-06-25T10:53:44.435Z,192
2018-06-25T10:54:49.278Z,249
2018-06-25T10:55:54.457Z,306
2018-06-25T10:56:59.828Z,346
2018-06-25T10:58:04.903Z,353
2018-06-25T10:59:10.190Z,394
2018-06-25T11:00:17.172Z,418
2018-06-25T11:01:23.862Z,427
2018-06-25T11:02:28.955Z,377
2018-06-25T11:03:34.708Z,361
2018-06-25T11:04:39.576Z,337
2018-06-25T11:05:44.759Z,313
2018-06-25T11:06:50.417Z,280
2018-06-25T11:07:55.585Z,313
2018-06-25T11:09:01.041Z,247
2018-06-25T11:10:06.568Z,264
2018-06-25T11:11:12.015Z,249
2018-06-25T11:12:17.201Z,225
2018-06-25T11:13:22.656Z,225
2018-06-25T11:14:27.264Z,216
2018-06-25T11:15:32.389Z,233
2018-06-25T11:16:38.037Z,233
2018-06-25T11:17:43.678Z,233
2018-06-25T11:18:49.383Z,273
2018-06-25T11:19:54.218Z,313
2018-06-25T11:20:59.375Z,346
2018-06-25T11:22:04.781Z,362
2018-06-25T11:23:10.238Z,353
2018-06-25T11:24:15.366Z,386
2018-06-25T11:25:20.506Z,402
2018-06-25T11:26:25.414Z,410
2018-06-25T11:27:31.533Z,434
2018-06-25T11:28:36.496Z,458
2018-06-25T11:29:41.644Z,538
2018-06-25T11:30:47.343Z,555
2018-06-25T11:31:52.808Z,482
2018-06-25T11:32:57.686Z,458
2018-06-25T11:34:02.963Z,441
2018-06-25T11:35:08.424Z,489
2018-06-25T11:36:14.093Z,432
2018-06-25T11:37:19.702Z,465
2018-06-25T11:38:24.888Z,385
2018-06-25T11:39:30.173Z,352
2018-06-25T11:40:35.044Z,288
2018-06-25T11:41:39.919Z,257
2018-06-25T11:42:45.284Z,224
2018-06-25T11:43:50.732Z,176
2018-06-25T11:44:55.625Z,152
2018-06-25T11:46:01.619Z,161
2018-06-25T11:47:06.843Z,145
2018-06-25T11:48:12.292Z,145
2018-06-25T11:49:18.004Z,145
2018-06-25T11:50:23.150Z,128
2018-06-25T11:51:29.064Z,112
2018-06-25T11:52:34.223Z,112
2018-06-25T11:53:39.088Z,128
2018-06-25T11:54:44.651Z,152
2018-06-25T11:55:49.855Z,201
2018-06-25T11:56:55.060Z,209
2018-06-25T11:58:00.760Z,241
2018-06-25T11:59:05.944Z,233
2018-06-25T12:00:11.623Z,249
2018-06-25T12:01:16.959Z,289
2018-06-25T12:02:22.223Z,330
2018-06-25T12:03:29.419Z,337
2018-06-25T12:04:34.470Z,370
2018-06-25T12:05:39.631Z,353
2018-06-25T12:06:45.144Z,330
2018-06-25T12:07:50.605Z,273
2018-06-25T12:08:56.256Z,216
2018-06-25T12:10:01.954Z,192
2018-06-25T12:11:07.133Z,185
2018-06-25T12:12:12.789Z,169
2018-06-25T12:13:18.372Z,169
2018-06-25T12:14:23.808Z,185
2018-06-25T12:15:29.667Z,192
2018-06-25T12:16:34.561Z,209
2018-06-25T12:17:39.359Z,176
2018-06-25T12:18:44.023Z,176
2018-06-25T12:19:49.108Z,225
2018-06-25T12:20:53.877Z,225
2018-06-25T12:21:59.170Z,192
2018-06-25T12:23:04.559Z,192
2018-06-25T12:24:10.068Z,192
2018-06-25T12:25:15.563Z,192
2018-06-25T12:26:21.214Z,209
2018-06-25T12:27:27.171Z,209
2018-06-25T12:28:32.340Z,209
2018-06-25T12:29:37.796Z,216
2018-06-25T12:30:43.206Z,249
2018-06-25T12:31:48.660Z,249
2018-06-25T12:32:53.828Z,233
2018-06-25T12:33:59.335Z,233
2018-06-25T12:35:04.730Z,233
2018-06-25T12:36:09.084Z,249
2018-06-25T12:37:15.071Z,257
2018-06-25T12:38:20.241Z,257
2018-06-25T12:39:40.637Z,257
2018-06-25T12:40:45.827Z,240
2018-06-25T12:41:50.985Z,249
2018-06-25T12:42:56.109Z,233
2018-06-25T12:44:00.998Z,225
2018-06-25T12:45:05.885Z,225
2018-06-25T12:46:11.303Z,192
2018-06-25T12:47:16.483Z,185
2018-06-25T12:48:21.437Z,169
2018-06-25T12:49:27.015Z,152
2018-06-25T12:50:32.469Z,152
2018-06-25T12:51:38.161Z,152
2018-06-25T12:52:43.316Z,152
2018-06-25T12:53:48.821Z,152
2018-06-25T12:54:53.698Z,161
2018-06-25T12:55:58.873Z,161
2018-06-25T12:57:04.094Z,136
2018-06-25T12:58:10.035Z,136
2018-06-25T12:59:15.548Z,145
2018-06-25T13:00:20.994Z,145
2018-06-25T13:01:26.645Z,145
2018-06-25T13:02:32.019Z,136
2018-06-25T13:03:37.709Z,152
2018-06-25T13:04:43.167Z,169
2018-06-25T13:05:48.607Z,185
2018-06-25T13:06:54.398Z,192
2018-06-25T13:07:59.278Z,233
2018-06-25T13:09:04.526Z,266
2018-06-25T13:10:10.041Z,240
2018-06-25T13:11:15.406Z,273
2018-06-25T13:12:20.585Z,289
2018-06-25T13:13:26.335Z,297
2018-06-25T13:14:31.783Z,330
2018-06-25T13:15:37.219Z,346
2018-06-25T13:16:42.667Z,337
2018-06-25T13:17:47.831Z,353
2018-06-25T13:18:53.246Z,386
2018-06-25T13:19:58.685Z,361
2018-06-25T13:21:03.277Z,370
2018-06-25T13:22:08.424Z,353
2018-06-25T13:23:13.582Z,304
2018-06-25T13:24:18.451Z,297
2018-06-25T13:25:23.301Z,264
2018-06-25T13:26:28.221Z,240
2018-06-25T13:27:33.920Z,233
2018-06-25T13:28:38.808Z,233
2018-06-25T13:29:44.314Z,207
2018-06-25T13:30:50.030Z,207
2018-06-25T13:31:55.289Z,209
2018-06-25T13:33:00.730Z,209
2018-06-25T13:34:06.197Z,200
2018-06-25T13:35:11.366Z,216
2018-06-25T13:36:15.963Z,249
2018-06-25T13:37:21.113Z,266
2018-06-25T13:38:26.298Z,289
2018-06-25T13:39:31.814Z,306
2018-06-25T13:40:37.487Z,297
2018-06-25T13:41:42.642Z,280
2018-06-25T13:42:48.449Z,306
2018-06-25T13:43:53.613Z,297
2018-06-25T13:44:59.067Z,297
2018-06-25T13:46:04.860Z,297
2018-06-25T13:47:10.222Z,264
2018-06-25T13:48:15.530Z,280
2018-06-25T13:49:20.585Z,328
2018-06-25T13:50:25.175Z,394
2018-06-25T13:51:29.744Z,377
2018-06-25T13:52:34.644Z,410
2018-06-25T13:53:39.805Z,410
2018-06-25T13:54:45.296Z,402
2018-06-25T13:55:50.570Z,402
2018-06-25T13:56:56.026Z,394
2018-06-25T13:58:01.434Z,418
2018-06-25T13:59:06.307Z,498
2018-06-25T14:00:11.487Z,498
2018-06-25T14:01:17.217Z,482
2018-06-25T14:02:22.148Z,529
2018-06-25T14:03:28.062Z,489
2018-06-25T14:04:32.932Z,368
2018-06-25T14:05:38.099Z,328
2018-06-25T14:06:43.954Z,337
2018-06-25T14:07:49.398Z,377
2018-06-25T14:08:54.847Z,418
2018-06-25T14:10:00.376Z,458
2018-06-25T14:11:05.860Z,458
2018-06-25T14:12:11.324Z,441
2018-06-25T14:13:16.949Z,450
2018-06-25T14:14:22.608Z,434
2018-06-25T14:15:28.012Z,418
2018-06-25T14:16:32.120Z,418
2018-06-25T14:17:36.976Z,361
2018-06-25T14:18:42.749Z,337
2018-06-25T14:19:48.215Z,321
2018-06-25T14:20:53.386Z,304
2018-06-25T14:21:59.294Z,280
2018-06-25T14:23:05.059Z,273
2018-06-25T14:24:10.155Z,273
2018-06-25T14:25:15.283Z,289
2018-06-25T14:26:20.449Z,330
2018-06-25T14:27:40.250Z,353
2018-06-25T14:28:45.692Z,361
2018-06-25T14:29:50.859Z,394
2018-06-25T14:30:56.295Z,410
2018-06-25T14:32:00.807Z,410
2018-06-25T14:33:05.405Z,418
2018-06-25T14:34:10.237Z,418
2018-06-25T14:35:15.748Z,418
2018-06-25T14:36:21.186Z,418
2018-06-25T14:37:41.110Z,377
2018-06-25T14:38:46.288Z,361
2018-06-25T14:39:52.207Z,353
2018-06-25T14:40:58.055Z,337
2018-06-25T14:42:02.953Z,337
2018-06-25T14:43:08.235Z,370
2018-06-25T14:44:13.386Z,370
2018-06-25T14:45:18.895Z,353
2018-06-25T14:46:24.820Z,370
2018-06-25T14:47:30.196Z,377
2018-06-25T14:48:35.437Z,377
2018-06-25T14:49:40.882Z,361
2018-06-25T14:50:46.086Z,394
2018-06-25T14:51:51.232Z,410
2018-06-25T14:52:55.712Z,377
2018-06-25T14:54:00.899Z,377
2018-06-25T14:55:06.530Z,337
2018-06-25T14:56:11.678Z,321
2018-06-25T14:57:16.571Z,361
2018-06-25T14:58:22.372Z,394
2018-06-25T14:59:27.821Z,401
2018-06-25T15:00:33.473Z,441
2018-06-25T15:01:38.925Z,507
2018-06-25T15:02:44.295Z,531
2018-06-25T15:03:49.959Z,538
2018-06-25T15:04:55.612Z,531
2018-06-25T15:06:01.078Z,491
2018-06-25T15:07:05.923Z,434
2018-06-25T15:08:11.374Z,361
2018-06-25T15:09:16.534Z,353
2018-06-25T15:10:21.380Z,337
2018-06-25T15:11:26.196Z,321
2018-06-25T15:12:32.047Z,313
2018-06-25T15:13:37.477Z,313
2018-06-25T15:14:42.937Z,280
2018-06-25T15:15:48.753Z,273
2018-06-25T15:16:53.927Z,240
2018-06-25T15:17:59.390Z,249
2018-06-25T15:19:04.368Z,216
2018-06-25T15:20:09.618Z,225
2018-06-25T15:21:14.903Z,200
2018-06-25T15:22:20.332Z,249
2018-06-25T15:23:25.299Z,257
2018-06-25T15:24:30.881Z,225